createdAt,value
2017-05-15T00:00:03.250Z,89.41
2017-05-15T00:05:03.600Z,88.7
2017-05-15T00:10:03.437Z,87.75
2017-05-15T00:15:03.171Z,86.61
2017-05-15T00:20:02.895Z,86.22
2017-05-15T00:25:03.557Z,85.47
2017-05-15T00:30:03.346Z,84.61
2017-05-15T00:35:02.936Z,82.7
2017-05-15T00:40:02.744Z,81.85
2017-05-15T00:45:03.412Z,81.28
2017-05-15T00:50:03.272Z,80.52
2017-05-15T00:55:02.984Z,80.13
2017-05-15T01:00:03.598Z,78.71
2017-05-15T01:05:03.389Z,78.61
2017-05-15T01:10:03.052Z,79.38
2017-05-15T01:15:03.677Z,80.52
2017-05-15T01:20:03.416Z,81.85
2017-05-15T01:25:03.184Z,82.42
2017-05-15T01:30:02.779Z,82.04
2017-05-15T01:35:03.403Z,82.32
2017-05-15T01:40:03.155Z,82.51
2017-05-15T01:45:02.758Z,82.61
2017-05-15T01:50:03.389Z,83.23
2017-05-15T01:55:03.296Z,83.14
2017-05-15T02:00:02.878Z,83.23
2017-05-15T02:05:03.508Z,83.42
2017-05-15T02:10:03.308Z,82.48
2017-05-15T02:15:03.140Z,82
2017-05-15T02:20:02.936Z,81.71
2017-05-15T02:25:03.633Z,81.71
2017-05-15T02:30:03.354Z,82.09
2017-05-15T02:35:02.996Z,81.58
2017-05-15T02:40:02.858Z,80.91
2017-05-15T02:45:03.471Z,80.24
2017-05-15T02:50:03.306Z,80.05
2017-05-15T02:55:03.094Z,79.77
2017-05-15T03:00:02.818Z,79.2
2017-05-15T03:05:03.594Z,78.44
2017-05-15T03:10:03.271Z,77.92
2017-05-15T03:15:02.847Z,76.97
2017-05-15T03:20:03.569Z,76.59
2017-05-15T03:25:03.143Z,74.69
2017-05-15T03:30:02.955Z,73.84
2017-05-15T03:35:03.726Z,73.74
2017-05-15T03:40:03.465Z,72.51
2017-05-15T03:45:03.103Z,71.56
2017-05-15T03:50:02.761Z,71.18
2017-05-15T03:55:03.430Z,70.61
2017-05-15T04:00:03.168Z,70.61
2017-05-15T04:05:02.870Z,70.79
2017-05-15T04:10:03.701Z,70.79
2017-05-15T04:15:03.423Z,70.32
2017-05-15T04:20:03.136Z,69.85
2017-05-15T04:25:02.871Z,70.51
2017-05-15T04:30:02.882Z,70.83
2017-05-15T04:35:03.480Z,72.26
2017-05-15T04:40:03.333Z,72.64
2017-05-15T04:45:03.017Z,74.26
2017-05-15T04:50:02.832Z,75.02
2017-05-15T04:55:03.585Z,76.2
2017-05-15T05:00:03.271Z,77.24
2017-05-15T05:05:03.090Z,78.38
2017-05-15T05:10:02.842Z,79.47
2017-05-15T05:15:03.653Z,80.04
2017-05-15T05:20:03.295Z,80.84
2017-05-15T05:25:02.937Z,82.46
2017-05-15T05:30:03.541Z,83.36
2017-05-15T05:35:03.282Z,85.46
2017-05-15T05:40:03.009Z,86.74
2017-05-15T05:45:03.680Z,86.32
2017-05-15T05:50:03.302Z,87.35
2017-05-15T05:55:02.899Z,93.74
2017-05-15T06:00:03.520Z,95.03
2017-05-15T06:05:03.244Z,97.13
2017-05-15T06:10:03.024Z,98.08
2017-05-15T06:15:02.761Z,99.99
2017-05-15T06:20:03.410Z,99.99
2017-05-15T06:25:03.161Z,99.99
2017-05-15T06:30:02.828Z,99.99
2017-05-15T06:35:03.608Z,99.99
2017-05-15T06:40:03.373Z,99.99
2017-05-15T06:45:03.197Z,99.99
2017-05-15T06:50:02.779Z,99.99
2017-05-15T06:55:03.493Z,99.99
2017-05-15T07:00:03.310Z,99.99
2017-05-15T07:05:02.957Z,99.99
2017-05-15T07:10:03.724Z,99.99
2017-05-15T07:15:03.490Z,99.99
2017-05-15T07:20:03.249Z,99.99
2017-05-15T07:25:02.994Z,99.99
2017-05-15T07:30:02.849Z,99.99
2017-05-15T07:35:03.461Z,99.58
2017-05-15T07:40:03.249Z,91.56
2017-05-15T07:45:03.096Z,87.62
2017-05-15T07:50:02.995Z,85.75
2017-05-15T07:55:03.620Z,83.42
2017-05-15T08:00:03.423Z,80.15
2017-05-15T08:05:03.180Z,78.9
2017-05-15T08:10:02.854Z,76.46
2017-05-15T08:15:03.716Z,78.28
2017-05-15T08:20:03.559Z,78.19
2017-05-15T08:25:03.282Z,75.69
2017-05-15T08:30:03.141Z,76.36
2017-05-15T08:35:02.989Z,76.88
2017-05-15T08:40:02.842Z,73.84
2017-05-15T08:45:03.616Z,70.79
2017-05-15T08:50:03.196Z,70.09
2017-05-15T08:55:02.810Z,66.88
2017-05-15T09:00:03.458Z,64.56
2017-05-15T09:05:03.194Z,65.33
2017-05-15T09:10:03.347Z,64.98
2017-05-15T09:15:03.367Z,63.44
2017-05-15T09:20:02.976Z,62.48
2017-05-15T09:25:02.777Z,62.96
2017-05-15T09:30:03.456Z,60.77
2017-05-15T09:35:03.088Z,60.48
2017-05-15T09:40:02.930Z,60.8
2017-05-15T09:45:02.764Z,59.22
2017-05-15T09:50:03.453Z,58.39
2017-05-15T09:55:03.201Z,60.41
2017-05-15T10:00:02.821Z,60.13
2017-05-15T10:05:03.571Z,59.03
2017-05-15T10:10:03.234Z,58.75
2017-05-15T10:15:02.795Z,56.29
2017-05-15T10:20:03.425Z,57.26
2017-05-15T10:25:08.149Z,56.86
2017-05-15T10:30:03.217Z,54.37
2017-05-15T10:35:03.221Z,52.95
2017-05-15T10:40:03.644Z,52.8
2017-05-15T10:45:03.427Z,53.14
2017-05-15T10:50:03.187Z,52.29
2017-05-15T10:55:02.906Z,51.2
2017-05-15T11:00:03.596Z,50.19
2017-05-15T11:05:03.242Z,48.3
2017-05-15T11:10:03.097Z,50.28
2017-05-15T11:15:02.759Z,49.12
2017-05-15T11:20:03.394Z,47.99
2017-05-15T11:25:03.128Z,47.79
2017-05-15T11:30:03.088Z,48.49
2017-05-15T11:35:02.732Z,46.25
2017-05-15T11:40:02.796Z,47
2017-05-15T11:45:02.950Z,46.44
2017-05-15T11:50:02.837Z,46.75
2017-05-15T11:55:03.660Z,47.21
2017-05-15T12:00:03.630Z,46.34
2017-05-15T12:05:03.278Z,45.49
2017-05-15T12:10:03.434Z,46.19
2017-05-15T12:15:03.709Z,43.85
2017-05-15T12:20:03.194Z,44.81
2017-05-15T12:25:03.441Z,45.81
2017-05-15T12:30:03.479Z,45.34
2017-05-15T12:35:03.759Z,45.44
2017-05-15T12:40:02.731Z,44.96
2017-05-15T12:45:03.102Z,44.57
2017-05-15T12:50:03.615Z,43.58
2017-05-15T12:55:04.043Z,44.54
2017-05-15T13:00:03.566Z,45.71
2017-05-15T13:05:03.256Z,42.97
2017-05-15T13:10:03.498Z,44.12
2017-05-15T13:15:03.406Z,45.92
2017-05-15T13:20:03.419Z,44.18
2017-05-15T13:25:02.765Z,44.18
2017-05-15T13:30:03.212Z,43.07
2017-05-15T13:35:03.535Z,44.67
2017-05-15T13:40:03.248Z,43.54
2017-05-15T13:45:03.222Z,42.4
2017-05-15T13:50:02.908Z,42.96
2017-05-15T13:55:02.826Z,43.77
2017-05-15T14:00:02.822Z,44.04
2017-05-15T14:05:03.237Z,43.37
2017-05-15T14:10:03.675Z,43.79
2017-05-15T14:15:05.571Z,43
2017-05-15T14:20:02.960Z,44.04
2017-05-15T14:25:03.290Z,42.22
2017-05-15T14:30:03.658Z,42.3
2017-05-15T14:35:03.602Z,41.83
2017-05-15T14:40:03.854Z,42.22
2017-05-15T14:45:03.203Z,43.21
2017-05-15T14:50:02.905Z,42.13
2017-05-15T14:55:02.960Z,41.06
2017-05-15T15:00:02.886Z,41.83
2017-05-15T15:05:03.191Z,41.02
2017-05-15T15:10:03.102Z,42.45
2017-05-15T15:15:03.707Z,42.57
2017-05-15T15:20:03.739Z,42.18
2017-05-15T15:25:03.223Z,43.15
2017-05-15T15:30:03.351Z,42.76
2017-05-15T15:35:03.352Z,43.23
2017-05-15T15:40:03.687Z,43.8
2017-05-15T15:45:03.697Z,44.12
2017-05-15T15:50:03.546Z,44.04
2017-05-15T15:55:03.023Z,43.44
2017-05-15T16:00:03.665Z,44.87
2017-05-15T16:05:03.513Z,45.04
2017-05-15T16:10:03.319Z,45.5
2017-05-15T16:15:03.320Z,46.25
2017-05-15T16:20:03.020Z,46.44
2017-05-15T16:25:03.251Z,46.56
2017-05-15T16:30:03.002Z,47.02
2017-05-15T16:35:02.721Z,47.6
2017-05-15T16:40:03.447Z,48.16
2017-05-15T16:45:03.133Z,48.57
2017-05-15T16:50:02.790Z,48.08
2017-05-15T16:55:03.554Z,48.93
2017-05-15T17:00:03.198Z,49.6
2017-05-15T17:05:03.102Z,49.7
2017-05-15T17:10:02.848Z,49.9
2017-05-15T17:15:03.449Z,49.99
2017-05-15T17:20:03.197Z,50.18
2017-05-15T17:25:02.814Z,50.57
2017-05-15T17:30:03.643Z,50.45
2017-05-15T17:35:03.296Z,50.93
2017-05-15T17:40:03.080Z,50.35
2017-05-15T17:45:02.918Z,50.9
2017-05-15T17:50:03.604Z,51.58
2017-05-15T17:55:03.344Z,51.58
2017-05-15T18:00:03.260Z,51.77
2017-05-15T18:05:03.046Z,52.16
2017-05-15T18:10:03.683Z,52.23
2017-05-15T18:15:03.343Z,52.81
2017-05-15T18:20:03.256Z,52.91
2017-05-15T18:25:03.333Z,53.77
2017-05-15T18:30:03.251Z,54.35
2017-05-15T18:35:03.483Z,54.61
2017-05-15T18:40:03.497Z,55
2017-05-15T18:45:03.579Z,55.19
2017-05-15T18:50:03.518Z,55.55
2017-05-15T18:55:02.983Z,55.65
2017-05-15T19:00:03.396Z,55.93
2017-05-15T19:05:02.987Z,56.03
2017-05-15T19:10:02.937Z,56.58
2017-05-15T19:15:02.857Z,57.06
2017-05-15T19:20:03.129Z,57.35
2017-05-15T19:25:03.225Z,57.64
2017-05-15T19:30:03.524Z,57.99
2017-05-15T19:35:03.029Z,58.76
2017-05-15T19:40:03.179Z,58.95
2017-05-15T19:45:03.234Z,59.24
2017-05-15T19:50:03.113Z,59.5
2017-05-15T19:55:03.468Z,60.08
2017-05-15T20:00:03.541Z,60.75
2017-05-15T20:05:03.344Z,61.52
2017-05-15T20:10:03.460Z,61.52
2017-05-15T20:15:03.002Z,62.35
2017-05-15T20:20:02.983Z,63.02
2017-05-15T20:25:03.017Z,62.93
2017-05-15T20:30:02.779Z,62.93
2017-05-15T20:35:02.833Z,63.22
2017-05-15T20:40:03.300Z,63.79
2017-05-15T20:45:03.290Z,63.79
2017-05-15T20:50:02.710Z,64.34
2017-05-15T20:55:03.423Z,65.11
2017-05-15T21:00:03.164Z,65.59
2017-05-15T21:05:03.102Z,65.88
2017-05-15T21:10:03.605Z,66.46
2017-05-15T21:15:03.704Z,66.64
2017-05-15T21:20:02.837Z,67.29
2017-05-15T21:25:02.955Z,68.05
2017-05-15T21:30:03.090Z,68.34
2017-05-15T21:35:03.004Z,69.01
2017-05-15T21:40:03.662Z,69.49
2017-05-15T21:45:03.386Z,70.17
2017-05-15T21:50:03.203Z,70.74
2017-05-15T21:55:02.771Z,71.41
2017-05-15T22:00:03.498Z,72.08
2017-05-15T22:05:03.439Z,72.47
2017-05-15T22:10:03.343Z,73.04
2017-05-15T22:15:02.960Z,73.2
2017-05-15T22:20:02.797Z,73.52
2017-05-15T22:25:03.572Z,73.43
2017-05-15T22:30:03.578Z,73.77
2017-05-15T22:35:03.395Z,73.77
2017-05-15T22:40:03.140Z,73.39
2017-05-15T22:45:02.788Z,73.1
2017-05-15T22:50:03.570Z,73.3
2017-05-15T22:55:03.179Z,73.58
2017-05-15T23:00:02.961Z,73.68
2017-05-15T23:05:03.501Z,73.68
2017-05-15T23:10:03.216Z,73.87
2017-05-15T23:15:05.893Z,74.73
2017-05-15T23:20:03.486Z,74.83
2017-05-15T23:25:03.272Z,75.31
2017-05-15T23:30:03.161Z,75.7
2017-05-15T23:35:02.779Z,76.07
2017-05-15T23:41:06.519Z,76.46
2017-05-15T23:45:03.075Z,77.04
2017-05-15T23:50:02.808Z,77.33
2017-05-15T23:55:03.586Z,77.71
